createdAt,value
2022-08-05T00:08:39.347Z,91
2022-08-05T00:18:39.770Z,92
2022-08-05T00:28:40.438Z,92
2022-08-05T01:38:43.305Z,94
2022-08-05T01:48:44.003Z,94
2022-08-05T01:58:45.301Z,95
2022-08-05T02:08:55.119Z,95
2022-08-05T02:18:45.551Z,95
2022-08-05T02:28:46.218Z,96
2022-08-05T02:38:53.073Z,96
2022-08-05T02:48:47.941Z,96
2022-08-05T02:58:51.335Z,96
2022-08-05T03:08:48.718Z,96
2022-08-05T03:18:48.900Z,96
2022-08-05T03:28:49.132Z,96
2022-08-05T03:38:53.191Z,97
2022-08-05T03:48:50.517Z,97
2022-08-05T03:58:51.164Z,98
2022-08-05T04:08:51.158Z,98
2022-08-05T04:18:54.058Z,98
2022-08-05T04:28:52.053Z,98
2022-08-05T04:48:52.591Z,99
2022-08-05T04:58:52.859Z,99
2022-08-05T05:08:53.015Z,99
2022-08-05T05:19:16.724Z,99
2022-08-05T05:28:54.263Z,99
2022-08-05T05:38:55.118Z,99
2022-08-05T05:48:55.951Z,99
2022-08-05T05:58:56.136Z,99
2022-08-05T06:08:57.210Z,100
2022-08-05T06:19:00.163Z,100
2022-08-05T06:28:58.384Z,100
2022-08-05T06:38:59.215Z,99
2022-08-05T06:49:00.917Z,99
2022-08-05T06:59:00.532Z,99
2022-08-05T07:09:03.926Z,99
2022-08-05T07:19:01.901Z,99
2022-08-05T07:39:02.681Z,99
2022-08-05T07:49:05.705Z,99
2022-08-05T08:09:05.250Z,98
2022-08-05T08:19:06.284Z,98
2022-08-05T08:29:09.817Z,98
2022-08-05T08:39:14.918Z,98
2022-08-05T08:59:14.772Z,98
2022-08-05T09:09:09.667Z,98
2022-08-05T09:29:11.652Z,98
2022-08-05T09:39:16.715Z,98
2022-08-05T10:09:24.942Z,97
2022-08-05T10:29:16.365Z,96
2022-08-05T10:39:15.373Z,94
2022-08-05T11:00:01.542Z,91
2022-08-05T11:20:09.759Z,88
2022-08-05T11:29:17.393Z,86
2022-08-05T11:29:39.309Z,86
2022-08-05T11:39:23.526Z,84
2022-08-05T11:59:25.302Z,81
2022-08-05T12:09:52.520Z,80
2022-08-05T12:20:16.607Z,78
2022-08-05T12:29:26.450Z,79
2022-08-05T12:39:27.775Z,79
2022-08-05T12:49:27.370Z,77
2022-08-05T12:59:46.523Z,73
2022-08-05T13:09:28.812Z,69
2022-08-05T13:19:40.566Z,72
2022-08-05T13:29:37.413Z,72
2022-08-05T13:40:14.728Z,72
2022-08-05T13:49:30.908Z,69
2022-08-05T13:59:31.415Z,67
2022-08-05T14:09:31.773Z,64
2022-08-05T14:19:32.304Z,55
2022-08-05T14:29:33.389Z,45
2022-08-05T14:39:48.401Z,44
2022-08-05T14:49:56.207Z,45
2022-08-05T14:59:35.527Z,43
2022-08-05T15:09:51.074Z,41
2022-08-05T15:19:35.556Z,41
2022-08-05T15:29:41.750Z,41
2022-08-05T15:40:42.337Z,41
2022-08-05T15:59:38.046Z,40
2022-08-05T16:09:37.646Z,42
2022-08-05T16:20:04.089Z,42
2022-08-05T16:29:38.933Z,43
2022-08-05T16:40:05.491Z,45
2022-08-05T16:49:40.218Z,47
2022-08-05T16:59:49.562Z,48
2022-08-05T17:09:57.960Z,49
2022-08-05T17:19:42.187Z,49
2022-08-05T17:39:43.702Z,50
2022-08-05T17:49:51.938Z,50
2022-08-05T18:09:58.671Z,52
2022-08-05T18:19:45.797Z,53
2022-08-05T18:40:29.940Z,55
2022-08-05T18:49:57.193Z,56
2022-08-05T19:00:02.093Z,58
2022-08-05T19:09:48.260Z,59
2022-08-05T19:19:48.560Z,60
2022-08-05T19:29:48.564Z,61
2022-08-05T19:39:51.111Z,62
2022-08-05T20:39:52.544Z,67
2022-08-05T21:09:54.397Z,69
2022-08-05T21:39:56.370Z,71
2022-08-05T21:50:00.527Z,72
2022-08-05T22:00:03.682Z,72
2022-08-05T22:30:00.000Z,74
2022-08-05T22:40:00.499Z,75
2022-08-05T22:50:18.990Z,75
2022-08-05T23:00:01.251Z,76
2022-08-05T23:10:02.817Z,77
2022-08-05T23:20:03.090Z,77
2022-08-05T23:40:07.611Z,79
2022-08-05T23:50:09.469Z,79
